Main page
METAR-TAF:

METAR-TAF

Airports :

Caracas, Venezuela

Simón Bolívar International Airport

latitude: 10-36N, longitude: 066-59W, elevation: 43 m

Current weather observation

The report was made 1 hour and 4 minutes ago, at 13:00 UTC
Wind 2 kt from the North/Northeast
Temperature 30°C
Humidity 75%
Pressure 1009 hPa
Visibility 10 km or more
Few clouds at a height of 1600 ft

METAR: SVMI 211300Z 02002KT 9999 FEW016 30/25 Q1009 NOSIG

Time: 10:04 (14:04 UTC)

Forecast

The report was made 4 hours and 4 minutes ago, at 10:00 UTC
Forecast valid from 21 at 12 UTC to 22 at 12 UTC
Wind 3 kt from the North/Northeast
Visibility 10 km or more
Few clouds at a height of 1600 ft
Becoming
from 21 at 15 UTC to 21 at 21 UTC
Wind 8 kt from the East/Northeast
Scattered clouds at a height of 1600 ft

TAF: SVMI 211000Z 2112/2212 02003KT 9999 FEW016 TX34/18Z TN25/08Z BECMG 2115/2121 07008KT SCT016

Weather observations and forecasts of more than 4000 airports (METAR and TAF reports).

The available stations are represented by yellow and red dots on the map.

Hover mouse over dot to see the name of the station.

Then click to see weather observations and forecasts.

To change the map : click on the green buttons with a black cross to zoom in, on the green button with a dash to zoom out, or on the green arrows for adjacent maps.


METAR-TAF: